createdAt,value
2023-06-06T00:02:06.056Z,100.00
2023-06-06T00:04:33.625Z,100.00
2023-06-06T00:07:04.692Z,100.00
2023-06-06T00:09:32.356Z,100.00
2023-06-06T00:11:59.947Z,100.00
2023-06-06T00:14:32.373Z,100.00
2023-06-06T00:17:01.355Z,100.00
2023-06-06T00:19:29.485Z,100.00
2023-06-06T00:21:57.074Z,100.00
2023-06-06T00:24:25.837Z,100.00
2023-06-06T00:26:53.310Z,100.00
2023-06-06T00:29:20.881Z,100.00
2023-06-06T00:31:48.385Z,100.00
2023-06-06T00:34:16.037Z,100.00
2023-06-06T00:36:44.477Z,100.00
2023-06-06T00:39:11.932Z,100.00
2023-06-06T00:41:39.403Z,100.00
2023-06-06T00:44:06.815Z,100.00
2023-06-06T00:46:34.429Z,100.00
2023-06-06T00:49:02.031Z,100.00
2023-06-06T00:51:29.593Z,100.00
2023-06-06T00:53:58.355Z,100.00
2023-06-06T00:56:29.583Z,100.00
2023-06-06T00:58:58.770Z,100.00
2023-06-06T01:01:30.068Z,100.00
2023-06-06T01:04:00.735Z,100.00
2023-06-06T01:06:28.372Z,100.00
2023-06-06T01:08:56.044Z,100.00
2023-06-06T01:11:30.402Z,100.00
2023-06-06T01:14:02.725Z,100.00
2023-06-06T01:16:34.780Z,100.00
2023-06-06T01:19:03.194Z,100.00
2023-06-06T01:21:40.984Z,100.00
2023-06-06T01:24:09.812Z,100.00
2023-06-06T01:26:37.438Z,100.00
2023-06-06T01:29:04.932Z,100.00
2023-06-06T01:31:38.748Z,100.00
2023-06-06T01:34:20.440Z,100.00
2023-06-06T01:37:06.988Z,100.00
2023-06-06T01:39:36.299Z,100.00
2023-06-06T01:42:06.734Z,100.00
2023-06-06T01:44:36.293Z,100.00
2023-06-06T01:47:05.918Z,100.00
2023-06-06T01:49:34.126Z,100.00
2023-06-06T01:52:01.642Z,100.00
2023-06-06T01:54:35.977Z,100.00
2023-06-06T01:57:03.876Z,100.00
2023-06-06T01:59:31.784Z,100.00
2023-06-06T02:02:00.574Z,100.00
2023-06-06T02:04:29.125Z,100.00
2023-06-06T02:06:57.263Z,100.00
2023-06-06T02:09:25.867Z,100.00
2023-06-06T02:11:53.344Z,100.00
2023-06-06T02:14:22.538Z,100.00
2023-06-06T02:16:50.173Z,100.00
2023-06-06T02:19:17.778Z,100.00
2023-06-06T02:21:45.225Z,100.00
2023-06-06T02:24:12.630Z,100.00
2023-06-06T02:26:41.943Z,100.00
2023-06-06T02:29:11.042Z,100.00
2023-06-06T02:31:38.897Z,100.00
2023-06-06T02:34:08.071Z,100.00
2023-06-06T02:36:36.210Z,100.00
2023-06-06T02:39:04.792Z,100.00
2023-06-06T02:41:32.342Z,100.00
2023-06-06T02:43:59.904Z,100.00
2023-06-06T02:46:27.701Z,100.00
2023-06-06T02:48:55.967Z,100.00
2023-06-06T02:51:24.511Z,100.00
2023-06-06T02:53:52.025Z,100.00
2023-06-06T02:56:19.697Z,100.00
2023-06-06T02:58:48.284Z,100.00
2023-06-06T03:01:16.205Z,100.00
2023-06-06T03:03:44.025Z,100.00
2023-06-06T03:06:11.541Z,100.00
2023-06-06T03:08:44.829Z,100.00
2023-06-06T03:11:12.812Z,100.00
2023-06-06T03:13:40.448Z,100.00
2023-06-06T03:16:08.662Z,100.00
2023-06-06T03:18:40.213Z,100.00
2023-06-06T03:21:11.996Z,100.00
2023-06-06T03:23:44.077Z,100.00
2023-06-06T03:26:12.304Z,100.00
2023-06-06T03:28:41.372Z,100.00
2023-06-06T03:31:11.920Z,100.00
2023-06-06T03:33:48.385Z,100.00
2023-06-06T03:36:15.953Z,100.00
2023-06-06T03:38:44.174Z,100.00
2023-06-06T03:41:12.521Z,100.00
2023-06-06T03:43:45.669Z,100.00
2023-06-06T03:46:14.868Z,100.00
2023-06-06T03:48:43.093Z,100.00
2023-06-06T03:51:10.968Z,100.00
2023-06-06T03:53:38.610Z,100.00
2023-06-06T03:56:07.866Z,100.00
2023-06-06T03:58:35.972Z,100.00
2023-06-06T04:01:04.083Z,100.00
2023-06-06T04:03:37.715Z,100.00
2023-06-06T04:06:29.996Z,100.00
2023-06-06T04:08:59.303Z,100.00
2023-06-06T04:11:27.319Z,100.00
2023-06-06T04:13:55.145Z,100.00
2023-06-06T04:16:23.055Z,100.00
2023-06-06T04:18:53.884Z,100.00
2023-06-06T04:21:22.520Z,100.00
2023-06-06T04:23:50.311Z,100.00
2023-06-06T04:26:25.783Z,100.00
2023-06-06T04:29:00.148Z,100.00
2023-06-06T04:31:30.528Z,100.00
2023-06-06T04:33:58.929Z,100.00
2023-06-06T04:36:29.222Z,100.00
2023-06-06T04:39:02.561Z,100.00
2023-06-06T04:41:53.328Z,100.00
2023-06-06T04:44:21.834Z,100.00
2023-06-06T04:46:49.893Z,100.00
2023-06-06T04:49:18.184Z,100.00
2023-06-06T04:51:46.108Z,100.00
2023-06-06T04:54:15.463Z,100.00
2023-06-06T04:56:54.011Z,100.00
2023-06-06T04:59:23.717Z,100.00
2023-06-06T05:01:52.572Z,100.00
2023-06-06T05:04:20.184Z,100.00
2023-06-06T05:06:47.950Z,100.00
2023-06-06T05:09:15.538Z,100.00
2023-06-06T05:11:48.045Z,100.00
2023-06-06T05:14:19.198Z,100.00
2023-06-06T05:16:48.414Z,100.00
2023-06-06T05:19:17.065Z,100.00
2023-06-06T05:21:44.665Z,100.00
2023-06-06T05:24:12.798Z,100.00
2023-06-06T05:26:40.400Z,100.00
2023-06-06T05:29:07.963Z,100.00
2023-06-06T05:31:36.718Z,100.00
2023-06-06T05:34:04.792Z,100.00
2023-06-06T05:36:32.364Z,100.00
2023-06-06T05:39:01.431Z,100.00
2023-06-06T05:41:29.045Z,100.00
2023-06-06T05:43:56.665Z,100.00
2023-06-06T05:46:24.355Z,100.00
2023-06-06T05:48:51.932Z,100.00
2023-06-06T05:51:19.418Z,100.00
2023-06-06T05:53:47.323Z,94.52
2023-06-06T05:56:17.382Z,94.50
2023-06-06T05:58:54.137Z,93.38
2023-06-06T06:01:25.486Z,92.29
2023-06-06T06:03:55.493Z,90.02
2023-06-06T06:06:23.465Z,89.09
2023-06-06T06:08:51.387Z,91.20
2023-06-06T06:11:19.816Z,92.13
2023-06-06T06:13:47.805Z,93.39
2023-06-06T06:16:15.316Z,93.55
2023-06-06T06:18:42.825Z,94.50
2023-06-06T06:21:10.670Z,93.84
2023-06-06T06:23:38.393Z,94.22
2023-06-06T06:26:06.160Z,93.56
2023-06-06T06:28:33.727Z,93.66
2023-06-06T06:31:02.138Z,92.82
2023-06-06T06:33:30.742Z,93.54
2023-06-06T06:35:58.205Z,93.08
2023-06-06T06:38:26.306Z,93.51
2023-06-06T06:40:55.114Z,91.73
2023-06-06T06:43:22.790Z,92.12
2023-06-06T06:46:02.624Z,92.30
2023-06-06T06:48:30.375Z,92.05
2023-06-06T06:50:57.925Z,92.84
2023-06-06T06:53:26.685Z,92.22
2023-06-06T06:55:55.369Z,91.63
2023-06-06T06:58:35.020Z,90.36
2023-06-06T07:01:22.025Z,90.65
2023-06-06T07:03:50.045Z,90.18
2023-06-06T07:06:19.360Z,91.59
2023-06-06T07:08:46.905Z,91.01
2023-06-06T07:11:14.891Z,88.89
2023-06-06T07:13:42.634Z,88.30
2023-06-06T07:16:10.420Z,87.36
2023-06-06T07:18:37.970Z,87.00
2023-06-06T07:21:06.165Z,85.07
2023-06-06T07:23:34.285Z,85.00
2023-06-06T07:26:06.515Z,85.04
2023-06-06T07:28:34.264Z,84.95
2023-06-06T07:31:02.062Z,84.17
2023-06-06T07:33:29.573Z,85.00
2023-06-06T07:35:57.111Z,83.94
2023-06-06T07:38:24.666Z,83.35
2023-06-06T07:40:52.107Z,83.25
2023-06-06T07:43:19.710Z,83.67
2023-06-06T07:45:47.396Z,84.26
2023-06-06T07:48:14.978Z,83.82
2023-06-06T07:50:42.814Z,83.52
2023-06-06T07:53:12.050Z,81.97
2023-06-06T07:55:39.677Z,81.43
2023-06-06T07:58:11.551Z,80.27
2023-06-06T08:00:41.866Z,79.57
2023-06-06T08:03:10.710Z,79.03
2023-06-06T08:05:38.464Z,78.91
2023-06-06T08:08:07.400Z,78.79
2023-06-06T08:10:35.056Z,78.48
2023-06-06T08:13:02.608Z,77.41
2023-06-06T08:15:30.014Z,77.85
2023-06-06T08:17:57.542Z,79.12
2023-06-06T08:20:25.030Z,79.05
2023-06-06T08:22:52.676Z,78.37
2023-06-06T08:25:20.189Z,78.54
2023-06-06T08:27:47.658Z,73.74
2023-06-06T08:30:16.288Z,75.16
2023-06-06T08:32:43.861Z,76.84
2023-06-06T08:35:11.485Z,78.37
2023-06-06T08:37:38.887Z,77.67
2023-06-06T08:40:07.240Z,77.45
2023-06-06T08:42:41.842Z,77.13
2023-06-06T08:45:09.992Z,76.53
2023-06-06T08:47:38.134Z,75.82
2023-06-06T08:50:08.490Z,73.85
2023-06-06T08:52:36.346Z,73.64
2023-06-06T08:55:05.865Z,74.00
2023-06-06T08:57:34.091Z,74.54
2023-06-06T09:00:12.274Z,73.38
2023-06-06T09:02:44.302Z,73.30
2023-06-06T09:05:23.483Z,70.27
2023-06-06T09:07:54.483Z,70.85
2023-06-06T09:10:22.196Z,71.10
2023-06-06T09:12:50.338Z,71.78
2023-06-06T09:15:17.808Z,72.95
2023-06-06T09:17:47.114Z,72.01
2023-06-06T09:20:17.081Z,72.02
2023-06-06T09:22:49.477Z,72.03
2023-06-06T09:25:19.094Z,71.04
2023-06-06T09:27:47.165Z,69.08
2023-06-06T09:30:25.503Z,65.08
2023-06-06T09:32:54.957Z,66.53
2023-06-06T09:35:22.670Z,68.64
2023-06-06T09:37:50.772Z,69.00
2023-06-06T09:40:19.949Z,71.08
2023-06-06T09:42:48.875Z,70.11
2023-06-06T09:45:21.264Z,71.54
2023-06-06T09:47:50.584Z,71.80
2023-06-06T09:50:20.476Z,71.60
2023-06-06T09:52:52.815Z,71.13
2023-06-06T09:55:21.467Z,71.50
2023-06-06T09:57:55.589Z,70.75
2023-06-06T10:00:25.017Z,71.44
2023-06-06T10:02:54.020Z,72.85
2023-06-06T10:05:29.461Z,72.44
2023-06-06T10:07:57.697Z,72.65
2023-06-06T10:10:25.884Z,73.10
2023-06-06T10:12:56.363Z,68.77
2023-06-06T10:15:25.102Z,69.21
2023-06-06T10:17:52.756Z,70.09
2023-06-06T10:20:21.794Z,71.38
2023-06-06T10:22:49.427Z,71.75
2023-06-06T10:25:20.095Z,72.62
2023-06-06T10:27:56.909Z,73.64
2023-06-06T10:30:27.646Z,73.18
2023-06-06T10:33:19.863Z,73.71
2023-06-06T10:35:52.246Z,73.11
2023-06-06T10:38:19.912Z,69.81
2023-06-06T10:40:53.085Z,68.75
2023-06-06T10:43:36.181Z,71.38
2023-06-06T10:46:04.355Z,70.08
2023-06-06T10:48:54.560Z,71.36
2023-06-06T10:51:24.962Z,70.88
2023-06-06T10:54:14.201Z,70.29
2023-06-06T10:56:48.720Z,70.70
2023-06-06T10:59:17.216Z,70.44
2023-06-06T11:01:47.804Z,69.39
2023-06-06T11:04:29.140Z,69.13
2023-06-06T11:07:01.935Z,70.11
2023-06-06T11:09:34.244Z,69.16
2023-06-06T11:12:16.962Z,67.63
2023-06-06T11:15:07.310Z,69.57
2023-06-06T11:17:51.015Z,68.86
2023-06-06T11:20:23.864Z,68.60
2023-06-06T11:23:04.937Z,65.92
2023-06-06T11:25:34.252Z,67.91
2023-06-06T11:28:01.989Z,68.71
2023-06-06T11:30:37.341Z,68.23
2023-06-06T11:33:11.161Z,67.80
2023-06-06T11:35:41.819Z,66.94
2023-06-06T11:38:09.467Z,67.45
2023-06-06T11:40:37.012Z,63.28
2023-06-06T11:43:06.387Z,62.19
2023-06-06T11:45:33.911Z,63.66
2023-06-06T11:50:32.075Z,62.63
2023-06-06T11:52:59.857Z,64.05
2023-06-06T11:55:38.219Z,64.55
2023-06-06T11:58:06.044Z,62.50
2023-06-06T12:00:34.490Z,63.34
2023-06-06T12:03:03.001Z,63.46
2023-06-06T12:05:55.673Z,63.07
2023-06-06T12:08:23.321Z,61.40
2023-06-06T12:10:51.140Z,62.02
2023-06-06T12:13:34.486Z,61.97
2023-06-06T12:16:02.032Z,61.75
2023-06-06T12:18:29.544Z,59.05
2023-06-06T12:21:07.641Z,59.41
2023-06-06T12:23:35.115Z,60.60
2023-06-06T12:26:03.726Z,57.93
2023-06-06T12:28:31.549Z,60.14
2023-06-06T12:30:59.250Z,58.23
2023-06-06T12:33:44.881Z,58.03
2023-06-06T12:36:16.928Z,55.89
2023-06-06T12:38:46.209Z,57.84
2023-06-06T12:41:13.780Z,55.12
2023-06-06T12:43:41.192Z,56.78
2023-06-06T12:46:08.739Z,58.39
2023-06-06T12:48:36.213Z,59.31
2023-06-06T12:51:03.832Z,59.33
2023-06-06T12:53:31.628Z,59.56
2023-06-06T12:55:59.124Z,57.55
2023-06-06T12:58:28.011Z,60.28
2023-06-06T13:00:55.496Z,61.05
2023-06-06T13:03:23.063Z,61.92
2023-06-06T13:05:54.637Z,62.62
2023-06-06T13:08:33.050Z,62.65
2023-06-06T13:11:07.991Z,60.70
2023-06-06T13:13:35.901Z,61.24
2023-06-06T13:16:03.971Z,60.87
2023-06-06T13:18:31.458Z,61.30
2023-06-06T13:21:00.629Z,59.85
2023-06-06T13:23:28.227Z,59.74
2023-06-06T13:25:57.154Z,59.70
2023-06-06T13:28:25.068Z,60.77
2023-06-06T13:30:52.932Z,60.77
2023-06-06T13:33:21.119Z,61.63
2023-06-06T13:35:50.020Z,60.55
2023-06-06T13:38:20.128Z,62.49
2023-06-06T13:40:48.179Z,61.26
2023-06-06T13:43:17.537Z,59.11
2023-06-06T13:45:45.685Z,60.41
2023-06-06T13:48:13.302Z,57.86
2023-06-06T13:50:41.344Z,57.74
2023-06-06T13:53:08.918Z,59.58
2023-06-06T13:55:36.440Z,58.21
2023-06-06T13:58:04.936Z,59.71
2023-06-06T14:00:33.558Z,58.46
2023-06-06T14:03:02.188Z,60.20
2023-06-06T14:05:30.946Z,58.88
2023-06-06T14:07:58.650Z,57.84
2023-06-06T14:10:27.885Z,58.83
2023-06-06T14:12:55.403Z,58.15
2023-06-06T14:15:23.000Z,58.96
2023-06-06T14:17:50.861Z,57.53
2023-06-06T14:20:22.760Z,58.90
2023-06-06T14:22:50.388Z,59.83
2023-06-06T14:25:18.878Z,59.12
2023-06-06T14:27:46.445Z,59.50
2023-06-06T14:30:14.211Z,59.26
2023-06-06T14:32:42.079Z,58.55
2023-06-06T14:35:10.713Z,59.71
2023-06-06T14:37:38.335Z,59.49
2023-06-06T14:40:07.335Z,59.89
2023-06-06T14:42:35.132Z,59.47
2023-06-06T14:45:02.850Z,58.98
2023-06-06T14:47:32.450Z,58.83
2023-06-06T14:50:00.160Z,59.59
2023-06-06T14:52:27.997Z,59.92
2023-06-06T14:54:55.485Z,60.47
2023-06-06T14:57:23.215Z,60.19
2023-06-06T15:02:20.048Z,59.10
2023-06-06T15:04:47.786Z,60.21
2023-06-06T15:07:15.477Z,60.45
2023-06-06T15:09:43.049Z,64.38
2023-06-06T15:12:14.189Z,66.24
2023-06-06T15:14:42.704Z,68.06
2023-06-06T15:17:11.134Z,69.13
2023-06-06T15:19:42.551Z,70.40
2023-06-06T15:22:11.729Z,70.82
2023-06-06T15:24:39.496Z,72.63
2023-06-06T15:27:07.476Z,74.72
2023-06-06T15:29:47.011Z,76.12
2023-06-06T15:32:14.789Z,79.35
2023-06-06T15:34:42.458Z,80.69
2023-06-06T15:37:10.418Z,79.59
2023-06-06T15:39:42.124Z,79.30
2023-06-06T15:42:11.790Z,80.59
2023-06-06T15:44:39.718Z,80.19
2023-06-06T15:47:07.474Z,79.92
2023-06-06T15:49:35.128Z,79.59
2023-06-06T15:52:02.648Z,78.75
2023-06-06T15:54:30.191Z,79.15
2023-06-06T15:56:57.792Z,81.21
2023-06-06T15:59:26.487Z,82.01
2023-06-06T16:01:54.451Z,83.76
2023-06-06T16:04:24.888Z,85.78
2023-06-06T16:06:53.328Z,88.08
2023-06-06T16:09:21.688Z,89.80
2023-06-06T16:11:49.266Z,90.73
2023-06-06T16:14:16.814Z,91.35
2023-06-06T16:16:45.459Z,89.35
2023-06-06T16:19:13.028Z,90.64
2023-06-06T16:21:40.683Z,89.04
2023-06-06T16:24:08.585Z,88.41
2023-06-06T16:26:36.852Z,87.31
2023-06-06T16:29:04.616Z,88.12
2023-06-06T16:31:32.948Z,87.72
2023-06-06T16:34:00.627Z,86.04
2023-06-06T16:36:28.154Z,86.05
2023-06-06T16:38:56.714Z,85.73
2023-06-06T16:41:24.762Z,84.57
2023-06-06T16:43:52.212Z,82.47
2023-06-06T16:46:19.700Z,82.18
2023-06-06T16:48:47.444Z,81.03
2023-06-06T16:51:17.455Z,80.85
2023-06-06T16:53:45.131Z,79.14
2023-06-06T16:56:12.695Z,78.55
2023-06-06T16:58:40.389Z,79.36
2023-06-06T17:01:08.037Z,77.43
2023-06-06T17:03:35.709Z,77.46
2023-06-06T17:06:28.528Z,74.91
2023-06-06T17:08:56.555Z,74.04
2023-06-06T17:11:24.353Z,76.59
2023-06-06T17:13:51.805Z,76.94
2023-06-06T17:16:19.308Z,76.67
2023-06-06T17:18:46.931Z,75.93
2023-06-06T17:21:14.586Z,74.82
2023-06-06T17:23:42.194Z,75.16
2023-06-06T17:26:09.837Z,73.65
2023-06-06T17:28:37.388Z,73.34
2023-06-06T17:31:05.057Z,71.76
2023-06-06T17:33:33.164Z,72.15
2023-06-06T17:36:00.701Z,71.81
2023-06-06T17:38:28.286Z,72.21
2023-06-06T17:40:55.865Z,72.21
2023-06-06T17:43:23.480Z,71.81
2023-06-06T17:45:51.033Z,69.49
2023-06-06T17:48:18.526Z,69.25
2023-06-06T17:50:46.103Z,70.08
2023-06-06T17:53:13.709Z,70.24
2023-06-06T17:55:41.411Z,70.81
2023-06-06T17:58:08.884Z,69.85
2023-06-06T18:00:36.536Z,68.57
2023-06-06T18:03:04.200Z,69.81
2023-06-06T18:05:35.083Z,70.89
2023-06-06T18:08:11.584Z,71.83
2023-06-06T18:10:40.106Z,73.07
2023-06-06T18:13:08.114Z,73.40
2023-06-06T18:15:35.774Z,74.47
2023-06-06T18:18:04.181Z,74.65
2023-06-06T18:20:31.795Z,75.41
2023-06-06T18:22:59.717Z,76.10
2023-06-06T18:25:28.403Z,76.50
2023-06-06T18:27:56.694Z,76.09
2023-06-06T18:30:24.378Z,75.20
2023-06-06T18:32:52.252Z,75.44
2023-06-06T18:35:20.057Z,75.92
2023-06-06T18:37:47.624Z,76.16
2023-06-06T18:40:20.891Z,77.01
2023-06-06T18:42:49.753Z,77.49
2023-06-06T18:45:18.108Z,78.42
2023-06-06T18:47:46.985Z,79.26
2023-06-06T18:50:33.304Z,79.49
2023-06-06T18:53:00.952Z,80.12
2023-06-06T18:55:28.520Z,80.45
2023-06-06T18:57:56.456Z,80.86
2023-06-06T19:00:24.099Z,81.33
2023-06-06T19:02:51.843Z,81.08
2023-06-06T19:05:19.590Z,81.46
2023-06-06T19:07:47.257Z,81.24
2023-06-06T19:10:14.839Z,81.21
2023-06-06T19:12:48.930Z,81.30
2023-06-06T19:15:17.604Z,81.47
2023-06-06T19:17:46.421Z,82.22
2023-06-06T19:20:15.210Z,82.77
2023-06-06T19:22:42.961Z,81.96
2023-06-06T19:25:11.605Z,81.98
2023-06-06T19:27:39.287Z,81.53
2023-06-06T19:30:07.491Z,82.79
2023-06-06T19:32:35.475Z,84.22
2023-06-06T19:35:03.463Z,84.63
2023-06-06T19:37:32.155Z,85.76
2023-06-06T19:39:59.889Z,86.90
2023-06-06T19:42:28.526Z,87.90
2023-06-06T19:44:56.779Z,88.41
2023-06-06T19:47:26.297Z,88.83
2023-06-06T19:49:54.085Z,89.20
2023-06-06T19:52:21.555Z,88.83
2023-06-06T19:54:49.968Z,88.70
2023-06-06T19:57:17.689Z,87.67
2023-06-06T19:59:45.306Z,87.34
2023-06-06T20:02:12.905Z,88.98
2023-06-06T20:04:43.565Z,87.80
2023-06-06T20:07:11.183Z,86.47
2023-06-06T20:09:38.676Z,84.55
2023-06-06T20:12:06.647Z,84.39
2023-06-06T20:14:34.251Z,85.21
2023-06-06T20:17:02.203Z,85.67
2023-06-06T20:19:29.815Z,86.67
2023-06-06T20:21:58.993Z,87.49
2023-06-06T20:24:26.591Z,86.88
2023-06-06T20:26:54.291Z,88.11
2023-06-06T20:29:21.929Z,89.04
2023-06-06T20:31:49.572Z,88.08
2023-06-06T20:34:17.398Z,88.19
2023-06-06T20:36:45.075Z,85.70
2023-06-06T20:39:24.322Z,85.79
2023-06-06T20:41:52.111Z,86.71
2023-06-06T20:44:19.642Z,85.69
2023-06-06T20:46:47.303Z,85.28
2023-06-06T20:49:14.879Z,84.81
2023-06-06T20:51:42.422Z,84.20
2023-06-06T20:54:10.919Z,84.03
2023-06-06T20:56:38.401Z,83.83
2023-06-06T20:59:05.929Z,83.78
2023-06-06T21:01:33.559Z,82.72
2023-06-06T21:04:19.618Z,82.69
2023-06-06T21:07:03.833Z,81.99
2023-06-06T21:09:32.603Z,83.37
2023-06-06T21:12:00.193Z,83.36
2023-06-06T21:14:29.233Z,84.15
2023-06-06T21:16:58.406Z,84.71
2023-06-06T21:19:26.127Z,86.17
2023-06-06T21:21:53.670Z,86.39
2023-06-06T21:24:21.125Z,86.33
2023-06-06T21:26:48.758Z,84.65
2023-06-06T21:29:16.358Z,83.42
2023-06-06T21:31:44.116Z,82.63
2023-06-06T21:34:11.814Z,82.97
2023-06-06T21:36:39.231Z,83.84
2023-06-06T21:39:07.468Z,84.94
2023-06-06T21:41:34.952Z,85.89
2023-06-06T21:44:02.398Z,86.31
2023-06-06T21:46:30.340Z,87.36
2023-06-06T21:48:57.906Z,87.68
2023-06-06T21:51:25.556Z,88.14
2023-06-06T21:53:53.029Z,88.45
2023-06-06T21:56:20.765Z,88.00
2023-06-06T21:58:48.260Z,88.36
2023-06-06T22:01:16.216Z,87.44
2023-06-06T22:03:43.799Z,87.36
2023-06-06T22:06:11.414Z,87.27
2023-06-06T22:08:38.856Z,87.95
2023-06-06T22:11:06.919Z,89.62
2023-06-06T22:13:34.503Z,90.88
2023-06-06T22:16:02.674Z,91.32
2023-06-06T22:18:30.142Z,92.02
2023-06-06T22:20:57.593Z,91.87
2023-06-06T22:23:25.875Z,92.39
2023-06-06T22:26:10.316Z,92.84
2023-06-06T22:28:39.322Z,94.81
2023-06-06T22:31:06.819Z,95.63
2023-06-06T22:33:36.649Z,95.30
2023-06-06T22:36:04.617Z,94.85
2023-06-06T22:38:32.151Z,94.40
2023-06-06T22:41:00.142Z,96.38
2023-06-06T22:43:27.712Z,95.64
2023-06-06T22:45:55.320Z,95.18
2023-06-06T22:48:23.167Z,94.30
2023-06-06T22:50:50.596Z,94.32
2023-06-06T22:53:19.211Z,93.93
2023-06-06T22:55:47.246Z,94.01
2023-06-06T22:58:14.881Z,94.07
2023-06-06T23:00:42.397Z,94.48
2023-06-06T23:03:09.985Z,95.38
2023-06-06T23:05:37.760Z,95.49
2023-06-06T23:08:05.257Z,94.86
2023-06-06T23:10:32.787Z,95.20
2023-06-06T23:13:00.375Z,95.16
2023-06-06T23:15:28.342Z,95.78
2023-06-06T23:17:55.979Z,95.48
2023-06-06T23:20:23.566Z,95.18
2023-06-06T23:22:51.096Z,95.58
2023-06-06T23:25:18.580Z,96.24
2023-06-06T23:27:46.135Z,95.67
2023-06-06T23:30:15.166Z,95.92
2023-06-06T23:32:43.522Z,96.14
2023-06-06T23:35:11.147Z,96.32
2023-06-06T23:37:38.841Z,96.30
2023-06-06T23:40:07.482Z,96.86
2023-06-06T23:42:35.105Z,97.36
2023-06-06T23:45:02.718Z,97.89
2023-06-06T23:47:30.357Z,97.83
2023-06-06T23:49:57.978Z,98.69
2023-06-06T23:52:25.727Z,99.36
2023-06-06T23:54:53.288Z,100.00
2023-06-06T23:57:20.825Z,99.29
2023-06-06T23:59:48.571Z,98.97
